Time;durP1;ratioP1;P1;durP2;ratioP2;P2;SDS_P1;SDS_P2;PMS_P1;PMS_P2;Temp;Humidity;BMP_temperature;BMP_pressure;BME280_temperature;BME280_humidity;BME280_pressure;Samples;Min_cycle;Max_cycle;Signal;HPM_P1;HPM_P2
2021/12/01 00:02:39;;;;;;;4.32;2.20;;;;;;;3.24;96.62;98801.81;4449574;32;35440;-74
2021/12/01 00:05:28;;;;;;;5.93;2.53;;;;;;;2.82;99.14;98800.50;4449320;32;34181;-74
2021/12/01 00:08:15;;;;;;;4.22;2.03;;;;;;;3.06;99.01;98795.19;4449928;32;35226;-74
2021/12/01 00:11:02;;;;;;;5.45;2.62;;;;;;;3.03;97.29;98799.25;4449087;32;35940;-74
2021/12/01 00:13:48;;;;;;;5.07;2.60;;;;;;;3.30;97.65;98800.66;4449934;32;34648;-74
2021/12/01 00:16:35;;;;;;;6.93;2.70;;;;;;;3.44;95.24;98796.22;4448794;32;35178;-74
2021/12/01 00:19:22;;;;;;;5.55;2.60;;;;;;;3.07;96.92;98797.59;4450086;32;34676;-74
2021/12/01 00:22:08;;;;;;;5.40;2.75;;;;;;;2.83;98.43;98800.22;4448652;32;34572;-74
2021/12/01 00:24:55;;;;;;;6.75;2.30;;;;;;;3.41;96.34;98818.44;4449476;32;34272;-74
2021/12/01 00:27:46;;;;;;;4.05;2.03;;;;;;;3.44;94.61;98809.75;4449410;32;34284;-74
2021/12/01 00:30:32;;;;;;;4.30;1.80;;;;;;;3.33;95.07;98822.59;4448677;32;35474;-75
2021/12/01 00:33:22;;;;;;;4.87;2.00;;;;;;;3.28;94.76;98813.69;4448340;32;34695;-74
2021/12/01 00:36:13;;;;;;;3.22;2.03;;;;;;;3.44;93.64;98820.59;4448694;32;34806;-74
2021/12/01 00:39:00;;;;;;;3.40;1.62;;;;;;;3.31;94.32;98823.97;4448946;32;34392;-75
2021/12/01 00:41:48;;;;;;;3.20;1.48;;;;;;;3.12;93.71;98829.25;4449684;32;34517;-74
2021/12/01 00:44:36;;;;;;;3.33;1.37;;;;;;;2.94;96.44;98833.44;4449433;32;35893;-74
2021/12/01 00:47:30;;;;;;;2.05;0.90;;;;;;;3.06;93.83;98828.47;4450156;32;34575;-74
2021/12/01 00:50:26;;;;;;;1.67;0.75;;;;;;;3.45;91.69;98832.25;4450305;32;34189;-75
2021/12/01 00:53:12;;;;;;;3.37;0.90;;;;;;;3.59;89.31;98831.31;4451728;32;35540;-74
2021/12/01 00:55:59;;;;;;;1.62;1.00;;;;;;;3.77;88.06;98818.13;4452482;32;36010;-74
2021/12/01 00:58:46;;;;;;;2.28;1.02;;;;;;;3.65;88.15;98831.25;4451461;32;34608;-75
2021/12/01 01:01:32;;;;;;;2.35;1.30;;;;;;;3.74;87.01;98822.22;4453252;32;34138;-76
2021/12/01 01:04:19;;;;;;;1.85;0.90;;;;;;;3.74;85.42;98821.41;4452096;32;33569;-75
2021/12/01 01:07:05;;;;;;;2.10;0.93;;;;;;;3.62;87.21;98829.94;4451642;32;35013;-77
2021/12/01 01:09:51;;;;;;;2.55;1.08;;;;;;;3.70;87.09;98821.19;4450127;32;34624;-75
2021/12/01 01:16:23;;;;;;;2.22;1.10;;;;;;;3.68;87.00;98833.41;4423917;32;34467;-76
2021/12/01 01:19:11;;;;;;;2.42;1.48;;;;;;;3.51;87.70;98829.22;4426495;32;33737;-75
2021/12/01 01:21:59;;;;;;;4.30;1.77;;;;;;;3.50;88.09;98833.00;4451165;32;34515;-78
2021/12/01 01:24:45;;;;;;;2.47;1.30;;;;;;;3.69;87.44;98840.44;4438664;32;35030;-75
2021/12/01 01:27:32;;;;;;;1.92;1.17;;;;;;;3.68;87.04;98830.69;4452370;32;34685;-77
2021/12/01 01:30:19;;;;;;;3.75;1.50;;;;;;;3.53;86.99;98828.91;4452488;32;35061;-76
2021/12/01 01:33:05;;;;;;;4.03;1.55;;;;;;;3.67;86.30;98837.19;4451197;32;35684;-75
2021/12/01 01:35:52;;;;;;;3.15;1.40;;;;;;;3.65;87.16;98839.38;4451054;32;34462;-78
2021/12/01 01:38:39;;;;;;;3.87;1.90;;;;;;;3.48;87.02;98840.59;4450371;32;34655;-75
2021/12/01 01:41:26;;;;;;;5.60;1.87;;;;;;;3.50;87.29;98833.00;4450271;32;35997;-76
2021/12/01 01:44:13;;;;;;;3.75;1.60;;;;;;;3.28;88.44;98844.28;4451067;32;34262;-75
2021/12/01 01:46:59;;;;;;;3.42;1.55;;;;;;;3.40;87.54;98843.13;4452489;32;35113;-76
2021/12/01 01:49:57;;;;;;;4.18;2.00;;;;;;;3.29;88.33;98837.78;4451432;32;35549;-75
2021/12/01 01:52:43;;;;;;;3.22;1.67;;;;;;;3.34;87.90;98845.06;4452054;32;35031;-74
2021/12/01 01:55:30;;;;;;;3.67;1.80;;;;;;;3.38;87.28;98846.91;4451539;32;35448;-75
2021/12/01 01:58:17;;;;;;;3.25;1.50;;;;;;;3.42;87.44;98849.87;4451693;32;34351;-74
2021/12/01 02:01:08;;;;;;;3.30;1.52;;;;;;;3.41;87.44;98850.13;4449910;32;34610;-73
2021/12/01 02:03:55;;;;;;;3.58;1.60;;;;;;;3.74;86.89;98859.34;4451537;32;36056;-74
2021/12/01 02:06:46;;;;;;;4.87;1.52;;;;;;;3.36;87.34;98859.13;4452018;32;35503;-74
2021/12/01 02:09:33;;;;;;;3.70;1.60;;;;;;;3.54;86.83;98861.12;4450001;32;34756;-73
2021/12/01 02:12:19;;;;;;;2.92;1.30;;;;;;;3.47;87.30;98863.38;4451423;32;35516;-73
2021/12/01 02:15:07;;;;;;;4.45;1.30;;;;;;;3.53;87.77;98859.53;4452275;32;36060;-74
2021/12/01 02:17:54;;;;;;;4.03;1.55;;;;;;;3.59;86.65;98863.00;4440092;32;34146;-74
2021/12/01 02:20:41;;;;;;;3.03;1.40;;;;;;;3.48;87.08;98866.88;4452087;32;34792;-75
2021/12/01 02:23:28;;;;;;;2.65;1.20;;;;;;;3.53;86.94;98886.63;4449678;32;34441;-74
2021/12/01 02:26:17;;;;;;;1.85;0.95;;;;;;;3.41;87.51;98882.63;4452217;32;34980;-74
2021/12/01 02:29:09;;;;;;;2.87;1.50;;;;;;;3.47;87.15;98878.78;4449894;32;34873;-75
2021/12/01 02:31:56;;;;;;;2.10;1.10;;;;;;;3.35;87.82;98869.12;4450885;32;35274;-79
2021/12/01 02:34:44;;;;;;;4.22;1.40;;;;;;;3.47;86.71;98881.50;4450234;32;34679;-74
2021/12/01 02:37:31;;;;;;;2.90;1.40;;;;;;;3.59;86.36;98869.22;4451655;32;35646;-75
2021/12/01 02:40:17;;;;;;;2.70;1.12;;;;;;;3.50;87.29;98870.09;4449284;32;34859;-74
2021/12/01 02:43:03;;;;;;;2.67;1.42;;;;;;;3.59;87.20;98871.94;4449947;32;32877;-73
2021/12/01 02:45:54;;;;;;;2.78;1.35;;;;;;;3.65;85.87;98866.47;4450617;32;35136;-73
2021/12/01 02:48:45;;;;;;;2.83;1.37;;;;;;;3.72;86.02;98877.78;4449460;32;35913;-74
2021/12/01 02:51:34;;;;;;;2.35;1.20;;;;;;;3.64;85.74;98883.81;4450764;32;34806;-74
2021/12/01 02:54:22;;;;;;;4.30;1.77;;;;;;;3.62;86.05;98881.41;4450720;32;34154;-74
2021/12/01 02:57:08;;;;;;;2.00;1.05;;;;;;;3.66;85.83;98874.31;4450243;32;34663;-75
2021/12/01 02:59:55;;;;;;;2.50;1.23;;;;;;;3.48;86.57;98878.53;4451244;32;34949;-75
2021/12/01 03:02:42;;;;;;;3.03;1.00;;;;;;;3.48;86.21;98875.81;4439047;32;34647;-74
2021/12/01 03:05:29;;;;;;;1.52;0.90;;;;;;;3.53;86.18;98874.94;4451018;32;35307;-75
2021/12/01 03:08:17;;;;;;;1.48;0.90;;;;;;;3.54;86.15;98863.03;4450947;32;34527;-73
2021/12/01 03:11:04;;;;;;;2.42;1.00;;;;;;;3.53;86.14;98859.53;4439791;32;35000;-73
2021/12/01 03:13:50;;;;;;;0.82;0.70;;;;;;;3.72;85.45;98862.34;4450523;32;35400;-74
2021/12/01 03:16:37;;;;;;;1.37;0.90;;;;;;;4.19;82.88;98862.72;4449344;32;34322;-74
2021/12/01 03:19:23;;;;;;;1.12;0.70;;;;;;;3.79;85.00;98859.31;4448772;32;34074;-72
2021/12/01 03:22:14;;;;;;;0.95;0.62;;;;;;;3.50;85.52;98875.53;4450547;32;34604;-74
2021/12/01 03:25:00;;;;;;;0.80;0.60;;;;;;;3.57;85.19;98871.41;4449058;32;34794;-74
2021/12/01 03:27:47;;;;;;;1.35;0.68;;;;;;;3.74;84.83;98883.72;4438779;32;34260;-74
2021/12/01 03:30:37;;;;;;;1.83;0.60;;;;;;;3.79;84.46;98878.28;4449500;32;34325;-74
2021/12/01 03:33:24;;;;;;;1.00;0.62;;;;;;;4.03;83.21;98879.13;4450497;32;35032;-75
2021/12/01 03:36:10;;;;;;;0.73;0.50;;;;;;;3.68;84.02;98882.97;4449450;32;34765;-75
2021/12/01 03:38:57;;;;;;;2.15;0.70;;;;;;;4.04;82.40;98879.91;4449853;32;34097;-73
2021/12/01 03:41:43;;;;;;;0.62;0.32;;;;;;;3.71;83.66;98882.41;4450589;32;34602;-74
2021/12/01 03:44:30;;;;;;;0.45;0.37;;;;;;;3.90;82.98;98882.50;4450966;32;34962;-75
2021/12/01 03:47:16;;;;;;;0.30;0.20;;;;;;;3.96;82.02;98894.13;4450363;32;35462;-74
2021/12/01 03:50:03;;;;;;;0.20;0.10;;;;;;;4.10;81.07;98888.81;4449291;32;34741;-75
2021/12/01 03:52:49;;;;;;;0.03;0.03;;;;;;;4.17;80.63;98898.22;4450758;32;34465;-74
2021/12/01 03:55:36;;;;;;;0.30;0.10;;;;;;;4.40;79.94;98907.47;4448047;32;34953;-75
2021/12/01 03:58:22;;;;;;;0.28;0.20;;;;;;;4.13;80.67;98893.69;4450067;32;34684;-73
2021/12/01 04:01:12;;;;;;;0.20;0.20;;;;;;;4.36;79.84;98887.47;4451053;32;34170;-75
2021/12/01 04:03:58;;;;;;;0.50;0.20;;;;;;;4.44;78.82;98889.53;4450093;32;34777;-73
2021/12/01 04:06:45;;;;;;;0.80;0.10;;;;;;;4.35;79.22;98883.13;4449187;32;34933;-73
2021/12/01 04:09:32;;;;;;;0.60;0.20;;;;;;;4.48;79.21;98885.16;4450940;32;33593;-75
2021/12/01 04:12:21;;;;;;;1.90;0.50;;;;;;;4.40;78.95;98876.84;4450686;32;34030;-74
2021/12/01 04:15:10;;;;;;;0.37;0.10;;;;;;;4.41;78.94;98887.41;4448938;32;34366;-73
2021/12/01 04:17:56;;;;;;;0.40;0.30;;;;;;;4.43;79.17;98901.47;4450216;32;36038;-74
2021/12/01 04:20:43;;;;;;;0.28;0.20;;;;;;;4.39;78.81;98903.16;4450285;32;36006;-75
2021/12/01 04:23:34;;;;;;;0.50;0.20;;;;;;;4.46;78.69;98898.19;4451684;32;35412;-75
2021/12/01 04:26:24;;;;;;;0.75;0.13;;;;;;;4.47;78.76;98901.72;4449565;32;34857;-75
2021/12/01 04:29:10;;;;;;;0.22;0.17;;;;;;;4.33;79.49;98908.94;4450833;32;34682;-74
2021/12/01 04:31:57;;;;;;;0.57;0.20;;;;;;;4.29;79.70;98920.31;4452779;32;34780;-75
2021/12/01 04:34:44;;;;;;;0.47;0.20;;;;;;;4.25;80.67;98910.34;4452094;32;34147;-75
2021/12/01 04:37:30;;;;;;;0.30;0.20;;;;;;;4.28;80.46;98901.66;4452031;32;34686;-75
2021/12/01 04:40:17;;;;;;;0.22;0.13;;;;;;;4.30;80.37;98913.03;4451848;32;33893;-74
2021/12/01 04:43:04;;;;;;;0.70;0.30;;;;;;;4.14;81.13;98927.81;4451064;32;34801;-74
2021/12/01 04:45:58;;;;;;;1.67;0.20;;;;;;;4.33;80.80;98920.59;4450659;32;33812;-74
2021/12/01 04:48:47;;;;;;;0.82;0.22;;;;;;;4.44;80.66;98941.09;4450317;32;34210;-75
2021/12/01 04:51:35;;;;;;;0.30;0.20;;;;;;;4.04;81.99;98955.81;4439279;32;35901;-74
2021/12/01 04:54:22;;;;;;;0.80;0.50;;;;;;;4.05;82.04;98952.03;4450666;32;34220;-74
2021/12/01 04:57:08;;;;;;;0.70;0.40;;;;;;;4.16;81.99;98960.88;4448875;32;33787;-74
2021/12/01 04:59:55;;;;;;;0.68;0.40;;;;;;;3.99;82.42;98970.25;4450477;32;34469;-75
2021/12/01 05:02:41;;;;;;;1.27;0.30;;;;;;;4.42;80.73;98975.00;4450641;32;35584;-74
2021/12/01 05:05:28;;;;;;;0.95;0.40;;;;;;;4.48;80.38;98990.13;4451210;32;35524;-74
2021/12/01 05:08:15;;;;;;;0.30;0.20;;;;;;;4.25;80.83;98984.38;4450848;32;34762;-73
2021/12/01 05:11:01;;;;;;;0.55;0.30;;;;;;;4.79;79.48;98987.91;4449449;32;34561;-74
2021/12/01 05:13:47;;;;;;;0.68;0.32;;;;;;;5.13;77.32;98989.69;4450373;32;35925;-73
2021/12/01 05:16:36;;;;;;;0.90;0.40;;;;;;;5.35;77.68;99006.25;4448379;32;34599;-74
2021/12/01 05:19:23;;;;;;;2.30;0.60;;;;;;;5.30;76.70;99008.22;4449598;32;35166;-74
2021/12/01 05:22:09;;;;;;;1.17;0.65;;;;;;;5.77;75.31;99012.72;4448516;32;35432;-74
2021/12/01 05:24:55;;;;;;;1.70;0.70;;;;;;;5.60;75.97;99023.28;4449815;32;35650;-74
2021/12/01 05:27:41;;;;;;;2.87;1.30;;;;;;;5.75;75.72;99031.25;4451524;32;35553;-73
2021/12/01 05:30:28;;;;;;;3.92;2.03;;;;;;;5.70;75.92;99039.47;4450832;32;34793;-74
2021/12/01 05:33:15;;;;;;;3.03;1.50;;;;;;;5.86;75.20;99043.59;4448116;32;34510;-74
2021/12/01 05:36:02;;;;;;;3.78;1.30;;;;;;;5.45;76.50;99042.53;4450866;32;35039;-75
2021/12/01 05:38:49;;;;;;;4.50;1.52;;;;;;;5.13;77.61;99041.28;4449717;32;34807;-74
2021/12/01 05:41:35;;;;;;;2.33;1.20;;;;;;;5.13;78.17;99049.44;4449908;32;34172;-74
2021/12/01 05:44:22;;;;;;;4.43;2.47;;;;;;;5.14;78.14;99043.69;4450026;32;35328;-74
2021/12/01 05:47:09;;;;;;;7.65;3.78;;;;;;;5.53;77.11;99063.63;4448120;32;35824;-74
2021/12/01 05:49:55;;;;;;;4.22;2.10;;;;;;;4.96;79.45;99066.97;4450355;32;35496;-74
2021/12/01 05:52:42;;;;;;;4.37;1.85;;;;;;;4.60;81.47;99076.56;4448769;32;34243;-73
2021/12/01 05:55:29;;;;;;;3.37;2.10;;;;;;;4.99;80.16;99083.81;4446561;32;35624;-74
2021/12/01 05:58:15;;;;;;;2.78;1.30;;;;;;;4.97;80.12;99086.78;4446996;32;34664;-74
2021/12/01 06:01:02;;;;;;;3.33;1.48;;;;;;;5.22;78.89;99080.28;4447559;32;34467;-75
2021/12/01 06:03:49;;;;;;;2.47;1.17;;;;;;;4.29;82.84;99082.25;4446338;32;34394;-74
2021/12/01 06:06:35;;;;;;;2.03;1.00;;;;;;;4.39;82.28;99079.47;4444458;32;35096;-74
2021/12/01 06:09:21;;;;;;;1.37;0.90;;;;;;;4.86;80.65;99079.84;4449013;32;33952;-77
2021/12/01 06:12:08;;;;;;;1.20;0.90;;;;;;;4.60;81.03;99080.09;4448753;32;35338;-75
2021/12/01 06:14:56;;;;;;;3.42;1.08;;;;;;;5.05;80.04;99088.09;4446830;32;33934;-74
2021/12/01 06:17:42;;;;;;;1.95;1.05;;;;;;;5.31;78.98;99086.69;4447462;32;35447;-74
2021/12/01 06:20:29;;;;;;;2.33;1.10;;;;;;;4.83;80.22;99097.50;4448714;32;36580;-73
2021/12/01 06:23:16;;;;;;;2.40;1.10;;;;;;;5.22;79.31;99107.44;4447449;32;35514;-74
2021/12/01 06:26:03;;;;;;;2.30;1.45;;;;;;;5.07;79.42;99104.91;4447169;32;35105;-73
2021/12/01 06:28:51;;;;;;;2.37;1.23;;;;;;;5.09;79.51;99113.56;4448871;32;35010;-74
2021/12/01 06:31:37;;;;;;;2.83;1.17;;;;;;;5.65;77.55;99112.91;4446465;32;35686;-73
2021/12/01 06:34:24;;;;;;;3.25;1.30;;;;;;;5.55;78.20;99118.47;4447925;32;34117;-74
2021/12/01 06:37:10;;;;;;;2.33;1.12;;;;;;;5.54;77.36;99125.81;4448087;32;35177;-72
2021/12/01 06:39:57;;;;;;;3.83;1.10;;;;;;;5.56;77.90;99133.69;4447473;32;34427;-74
2021/12/01 06:42:44;;;;;;;4.18;1.25;;;;;;;5.74;77.18;99130.19;4448580;32;34548;-75
2021/12/01 06:45:31;;;;;;;3.12;1.33;;;;;;;6.02;75.55;99124.97;4448340;32;35249;-74
2021/12/01 06:48:17;;;;;;;3.65;1.60;;;;;;;6.22;75.32;99135.56;4447449;32;35060;-75
2021/12/01 06:51:04;;;;;;;3.87;1.50;;;;;;;5.90;75.43;99135.44;4448204;32;35194;-74
2021/12/01 06:53:51;;;;;;;2.78;1.90;;;;;;;5.61;77.41;99149.94;4447634;32;34725;-74
2021/12/01 06:56:37;;;;;;;3.53;1.85;;;;;;;5.37;78.54;99150.72;4446716;32;35133;-74
2021/12/01 06:59:24;;;;;;;2.65;1.30;;;;;;;5.39;79.24;99150.47;4446751;32;34679;-75
2021/12/01 07:02:11;;;;;;;4.37;2.30;;;;;;;5.49;78.29;99154.94;4448732;32;34262;-74
2021/12/01 07:04:58;;;;;;;3.92;1.90;;;;;;;5.79;77.55;99141.00;4447810;32;34721;-75
2021/12/01 07:07:44;;;;;;;4.47;2.20;;;;;;;6.06;75.35;99148.56;4448471;32;34802;-75
2021/12/01 07:10:31;;;;;;;4.22;2.17;;;;;;;5.37;78.12;99148.00;4448534;32;35052;-75
2021/12/01 07:13:18;;;;;;;4.68;1.85;;;;;;;5.49;78.26;99135.94;4448692;32;35177;-73
2021/12/01 07:16:05;;;;;;;2.95;1.73;;;;;;;5.46;78.58;99133.78;4448086;32;34931;-73
2021/12/01 07:18:52;;;;;;;3.00;1.50;;;;;;;5.62;77.41;99113.50;4442207;32;34707;-73
2021/12/01 07:21:38;;;;;;;3.78;1.75;;;;;;;4.44;82.02;99109.28;4448012;32;35039;-73
2021/12/01 07:24:25;;;;;;;3.17;1.40;;;;;;;5.54;79.07;99112.22;4446772;32;34212;-73
2021/12/01 07:27:12;;;;;;;3.42;1.77;;;;;;;5.48;79.11;99123.47;4447924;32;36055;-74
2021/12/01 07:29:58;;;;;;;3.50;1.85;;;;;;;5.73;78.17;99120.44;4446510;32;34181;-73
2021/12/01 07:32:45;;;;;;;1.92;1.37;;;;;;;5.63;78.36;99126.81;4445282;32;33942;-74
2021/12/01 07:35:31;;;;;;;3.83;1.77;;;;;;;5.57;78.26;99127.16;4445386;32;35186;-76
2021/12/01 07:38:18;;;;;;;3.85;1.60;;;;;;;5.75;77.76;99128.28;4432928;32;35559;-75
2021/12/01 07:41:04;;;;;;;3.78;1.60;;;;;;;5.46;79.02;99126.44;4444786;32;34298;-76
2021/12/01 07:43:51;;;;;;;3.72;1.98;;;;;;;5.85;78.79;99133.59;4446816;32;34806;-76
2021/12/01 07:46:38;;;;;;;4.97;2.40;;;;;;;5.46;80.25;99136.50;4446586;32;34208;-75
2021/12/01 07:49:25;;;;;;;4.95;1.90;;;;;;;5.51;79.59;99131.81;4446290;32;35853;-72
2021/12/01 07:52:11;;;;;;;3.78;1.40;;;;;;;5.81;78.44;99122.50;4446347;32;34618;-73
2021/12/01 07:54:59;;;;;;;3.87;1.98;;;;;;;5.46;80.56;99120.22;4443389;32;35000;-71
2021/12/01 07:57:46;;;;;;;5.60;1.40;;;;;;;6.51;76.55;99107.34;4445604;32;34164;-73
2021/12/01 08:00:33;;;;;;;3.22;1.60;;;;;;;6.07;78.98;99105.88;4446075;32;34725;-72
2021/12/01 08:03:19;;;;;;;5.22;1.92;;;;;;;6.32;78.42;99099.25;4444315;32;34531;-72
2021/12/01 08:06:06;;;;;;;2.78;1.60;;;;;;;6.58;79.04;99109.72;4444606;32;34185;-72
2021/12/01 08:08:53;;;;;;;4.53;1.75;;;;;;;6.25;80.78;99104.22;4444770;32;33445;-72
2021/12/01 08:11:40;;;;;;;5.32;2.20;;;;;;;5.66;82.89;99100.94;4446145;32;34569;-73
2021/12/01 08:14:26;;;;;;;8.23;4.00;;;;;;;5.80;83.04;99110.00;4446339;32;35667;-73
2021/12/01 08:17:13;;;;;;;7.43;3.08;;;;;;;5.60;85.04;99099.38;4447692;32;33789;-74
2021/12/01 08:19:59;;;;;;;7.25;2.45;;;;;;;5.23;85.86;99108.25;4446494;32;34413;-74
2021/12/01 08:22:46;;;;;;;6.68;2.50;;;;;;;5.31;86.12;99108.41;4443314;32;35946;-72
2021/12/01 08:25:33;;;;;;;12.23;5.25;;;;;;;6.46;81.93;99108.25;4443856;32;34649;-73
2021/12/01 08:28:19;;;;;;;12.80;6.95;;;;;;;6.45;80.43;99100.38;4446928;32;34149;-73
2021/12/01 08:31:05;;;;;;;13.62;8.18;;;;;;;5.67;83.20;99104.47;4447905;32;35619;-73
2021/12/01 08:33:52;;;;;;;8.65;5.15;;;;;;;5.98;84.51;99094.03;4446080;32;35924;-73
2021/12/01 08:36:39;;;;;;;6.87;3.78;;;;;;;5.68;84.24;99097.94;4444293;32;33457;-73
2021/12/01 08:39:26;;;;;;;6.95;3.42;;;;;;;5.35;86.65;99109.47;4447104;32;34272;-73
2021/12/01 08:42:12;;;;;;;5.78;2.97;;;;;;;5.09;87.90;99113.56;4445046;32;34160;-73
2021/12/01 08:45:00;;;;;;;6.57;3.25;;;;;;;4.71;90.70;99107.94;4442547;32;35618;-74
2021/12/01 08:47:48;;;;;;;7.47;4.40;;;;;;;5.23;90.20;99111.78;4424839;32;35144;-75
2021/12/01 08:50:35;;;;;;;7.82;4.18;;;;;;;5.48;89.49;99096.28;4442915;32;34182;-74
2021/12/01 08:53:24;;;;;;;5.18;2.87;;;;;;;5.33;91.64;99110.88;4443781;32;35579;-74
2021/12/01 08:56:11;;;;;;;6.47;3.00;;;;;;;5.51;90.76;99103.84;4442316;32;34591;-75
2021/12/01 08:58:57;;;;;;;4.75;1.98;;;;;;;5.47;91.73;99103.63;4445147;32;33997;-74
2021/12/01 09:01:44;;;;;;;2.85;1.50;;;;;;;5.80;89.13;99099.13;4444606;32;35279;-75
2021/12/01 09:04:31;;;;;;;3.17;1.60;;;;;;;5.72;90.40;99097.06;4443208;32;34283;-74
2021/12/01 09:07:18;;;;;;;2.55;1.20;;;;;;;5.69;90.66;99091.38;4443164;32;36399;-74
2021/12/01 09:10:06;;;;;;;3.62;1.50;;;;;;;5.24;91.60;99107.97;4445132;32;34667;-74
2021/12/01 09:12:52;;;;;;;2.53;1.27;;;;;;;5.19;92.83;99095.25;4447898;32;35083;-75
2021/12/01 09:15:38;;;;;;;3.03;1.23;;;;;;;5.74;92.33;99080.47;4446188;32;35615;-75
2021/12/01 09:18:27;;;;;;;3.42;1.45;;;;;;;6.40;87.16;99078.69;4440470;32;34603;-74
2021/12/01 09:21:14;;;;;;;2.65;1.55;;;;;;;6.59;88.16;99067.78;4440158;32;34675;-74
2021/12/01 09:24:01;;;;;;;2.22;1.42;;;;;;;5.92;89.91;99059.81;4444427;32;33303;-73
2021/12/01 09:26:48;;;;;;;2.53;1.40;;;;;;;6.49;88.38;99060.59;4444446;32;34864;-74
2021/12/01 09:29:33;;;;;;;4.35;1.58;;;;;;;6.49;88.28;99066.84;4446766;32;36019;-74
2021/12/01 09:32:20;;;;;;;3.55;1.85;;;;;;;7.35;84.92;99079.19;4443170;32;34266;-73
2021/12/01 09:35:08;;;;;;;7.05;2.62;;;;;;;7.27;84.04;99086.13;4445452;32;34187;-74
2021/12/01 09:37:55;;;;;;;6.55;2.90;;;;;;;7.48;83.92;99078.34;4443849;32;35360;-73
2021/12/01 09:40:46;;;;;;;7.55;2.85;;;;;;;7.49;83.13;99088.16;4446698;32;34496;-75
2021/12/01 09:43:33;;;;;;;6.15;2.72;;;;;;;7.30;84.95;99076.53;4434803;32;34181;-75
2021/12/01 09:46:20;;;;;;;8.07;3.65;;;;;;;7.74;82.46;99056.81;4446501;32;34066;-75
2021/12/01 09:49:06;;;;;;;9.43;4.18;;;;;;;7.59;79.70;99043.50;4445827;32;35604;-76
2021/12/01 09:51:53;;;;;;;9.27;3.50;;;;;;;7.48;79.30;99042.91;4447577;32;34654;-75
2021/12/01 09:54:40;;;;;;;9.32;4.05;;;;;;;7.43;78.55;99043.03;4443703;32;34633;-75
2021/12/01 09:57:27;;;;;;;7.47;4.00;;;;;;;7.39;77.21;99044.75;4442875;32;34317;-75
2021/12/01 10:00:14;;;;;;;15.20;5.28;;;;;;;7.27;77.02;99030.84;4444103;32;34666;-73
2021/12/01 10:03:01;;;;;;;7.12;4.00;;;;;;;7.31;78.59;99043.53;4434397;32;34657;-76
2021/12/01 10:06:02;;;;;;;10.23;4.32;;;;;;;7.33;79.35;99048.69;4443789;32;34336;-75
2021/12/01 10:09:04;;;;;;;8.93;4.20;;;;;;;7.21;76.59;99028.19;4446311;32;34754;-74
2021/12/01 10:11:51;;;;;;;10.43;5.25;;;;;;;6.04;82.80;99038.47;4445214;32;34507;-75
2021/12/01 10:14:38;;;;;;;13.85;5.07;;;;;;;7.21;78.95;99035.56;4448642;32;34719;-74
2021/12/01 10:17:34;;;;;;;10.20;4.50;;;;;;;6.86;80.62;99027.00;4445304;32;34050;-73
2021/12/01 10:20:21;;;;;;;9.20;5.12;;;;;;;6.74;78.10;99018.50;4445032;32;32689;-75
2021/12/01 10:23:13;;;;;;;14.32;4.82;;;;;;;6.55;79.51;99032.19;4443226;32;35095;-75
2021/12/01 10:26:36;;;;;;;7.07;3.87;;;;;;;7.05;76.78;99037.78;4445276;32;33830;-75
2021/12/01 10:29:25;;;;;;;10.50;5.55;;;;;;;7.10;75.40;99039.63;4445537;32;34246;-73
2021/12/01 10:32:15;;;;;;;8.95;3.72;;;;;;;6.01;78.34;99039.06;4445518;32;35104;-74
2021/12/01 10:35:03;;;;;;;8.20;3.87;;;;;;;6.38;78.31;99040.09;4440981;32;34596;-74
2021/12/01 10:37:50;;;;;;;7.43;4.22;;;;;;;6.68;76.38;99031.38;4446512;32;35663;-73
2021/12/01 10:40:37;;;;;;;8.73;4.43;;;;;;;7.01;71.72;99034.06;4443521;32;35393;-74
2021/12/01 10:43:34;;;;;;;7.25;4.15;;;;;;;6.98;71.82;99034.66;4443143;32;35141;-75
2021/12/01 10:46:21;;;;;;;9.10;4.00;;;;;;;6.44;73.13;99030.75;4444769;32;34305;-75
2021/12/01 10:49:07;;;;;;;7.03;3.40;;;;;;;6.55;73.95;99020.50;4447347;32;34970;-75
2021/12/01 10:51:53;;;;;;;6.05;3.00;;;;;;;6.71;71.71;99019.91;4445381;32;34841;-75
2021/12/01 10:54:40;;;;;;;10.70;3.75;;;;;;;6.59;73.84;99022.31;4441601;32;34219;-75
2021/12/01 10:57:26;;;;;;;8.32;3.30;;;;;;;6.22;73.70;99018.56;4446771;32;34419;-75
2021/12/01 11:00:36;;;;;;;7.85;3.65;;;;;;;7.20;71.32;99001.28;4440847;32;35056;-75
2021/12/01 11:03:26;;;;;;;8.27;3.47;;;;;;;7.02;70.94;98997.53;4443681;32;35450;-73
2021/12/01 11:06:19;;;;;;;9.63;3.90;;;;;;;7.15;70.86;99001.38;4446230;32;33153;-76
2021/12/01 11:09:07;;;;;;;8.75;3.50;;;;;;;7.17;70.19;99008.13;4444478;32;35491;-75
2021/12/01 11:11:54;;;;;;;7.25;3.62;;;;;;;7.28;71.29;98999.72;4445217;32;35024;-75
2021/12/01 11:14:44;;;;;;;8.00;3.75;;;;;;;6.89;71.36;99004.59;4446209;32;34708;-75
2021/12/01 11:17:40;;;;;;;6.65;3.25;;;;;;;7.29;70.53;98995.91;4446035;32;34846;-75
2021/12/01 11:20:34;;;;;;;8.75;3.40;;;;;;;7.31;69.73;98982.78;4434974;32;34565;-74
2021/12/01 11:23:22;;;;;;;8.68;3.47;;;;;;;7.55;69.14;98975.16;4444657;32;34624;-73
2021/12/01 11:26:16;;;;;;;6.37;3.12;;;;;;;7.11;69.53;98978.56;4441347;32;35215;-73
2021/12/01 11:29:11;;;;;;;5.65;2.75;;;;;;;7.27;69.01;98959.97;4443381;32;34151;-73
2021/12/01 11:31:58;;;;;;;5.75;3.05;;;;;;;7.51;67.89;98952.34;4434940;32;33715;-74
2021/12/01 11:34:45;;;;;;;8.27;3.00;;;;;;;8.12;65.81;98947.34;4442292;32;35608;-74
2021/12/01 11:37:31;;;;;;;5.97;2.67;;;;;;;8.64;63.68;98935.94;4443740;32;34546;-74
2021/12/01 11:40:17;;;;;;;5.68;2.50;;;;;;;8.86;62.42;98926.84;4444799;32;34738;-74
2021/12/01 11:43:05;;;;;;;6.85;3.10;;;;;;;8.70;61.88;98913.63;4444006;32;35441;-74
2021/12/01 11:45:52;;;;;;;5.70;2.45;;;;;;;8.28;64.16;98917.75;4444361;32;35180;-74
2021/12/01 11:48:53;;;;;;;5.40;2.55;;;;;;;8.69;60.43;98909.28;4445714;32;34853;-74
2021/12/01 11:51:46;;;;;;;7.03;2.30;;;;;;;8.88;61.95;98900.00;4440750;32;34346;-74
2021/12/01 11:54:32;;;;;;;5.10;2.50;;;;;;;9.07;60.39;98891.53;4431799;32;34393;-74
2021/12/01 11:57:19;;;;;;;4.90;2.58;;;;;;;8.72;60.67;98894.19;4444892;32;34685;-74
2021/12/01 12:00:07;;;;;;;7.47;3.28;;;;;;;9.43;60.46;98875.66;4443886;32;35578;-74
2021/12/01 12:03:25;;;;;;;8.40;3.10;;;;;;;8.21;63.67;98887.38;4430705;32;33749;-74
2021/12/01 12:06:18;;;;;;;6.72;3.12;;;;;;;9.35;60.87;98868.25;4443482;32;35438;-77
2021/12/01 12:09:12;;;;;;;8.70;3.28;;;;;;;9.00;60.44;98867.44;4444090;32;34772;-76
2021/12/01 12:11:58;;;;;;;5.05;2.50;;;;;;;8.32;63.19;98864.16;4442894;32;34959;-76
2021/12/01 12:14:50;;;;;;;8.88;2.90;;;;;;;9.56;58.77;98851.19;4444799;32;33649;-76
2021/12/01 12:17:37;;;;;;;7.20;2.90;;;;;;;9.72;57.58;98849.56;4443799;32;35597;-75
2021/12/01 12:20:27;;;;;;;8.18;3.20;;;;;;;9.17;58.87;98855.72;4444723;32;37897;-75
2021/12/01 12:23:15;;;;;;;5.03;2.40;;;;;;;9.62;58.63;98858.09;4443250;32;34609;-75
2021/12/01 12:26:01;;;;;;;7.78;3.05;;;;;;;9.43;58.44;98853.78;4442804;32;34722;-75
2021/12/01 12:29:00;;;;;;;8.10;3.20;;;;;;;9.31;59.65;98850.91;4434228;32;35499;-73
2021/12/01 12:31:49;;;;;;;6.40;3.12;;;;;;;9.35;59.25;98853.78;4443986;32;34927;-72
2021/12/01 12:34:48;;;;;;;7.03;2.67;;;;;;;9.31;58.87;98848.16;4444437;32;34149;-73
2021/12/01 12:37:35;;;;;;;10.00;2.90;;;;;;;9.39;59.82;98841.91;4440654;32;33726;-74
2021/12/01 12:40:21;;;;;;;6.07;2.78;;;;;;;9.34;59.93;98844.00;4444918;32;35652;-75
2021/12/01 12:43:07;;;;;;;7.12;3.17;;;;;;;9.10;60.85;98833.50;4446433;32;34737;-74
2021/12/01 12:46:06;;;;;;;5.03;2.53;;;;;;;9.24;60.02;98825.97;4444833;32;35406;-74
2021/12/01 12:48:52;;;;;;;6.35;3.15;;;;;;;8.63;62.39;98828.63;4447173;32;34069;-74
2021/12/01 12:51:40;;;;;;;5.82;2.90;;;;;;;8.89;62.11;98817.75;4445287;32;32365;-74
2021/12/01 12:54:26;;;;;;;14.50;3.33;;;;;;;9.00;60.66;98813.59;4446430;32;35698;-73
2021/12/01 12:57:14;;;;;;;8.32;3.12;;;;;;;8.09;63.83;98820.53;4444778;32;34188;-74
2021/12/01 13:00:18;;;;;;;7.32;2.83;;;;;;;9.43;60.21;98812.75;4447606;32;33675;-74
2021/12/01 13:03:17;;;;;;;8.30;3.37;;;;;;;9.39;60.18;98806.34;4448004;32;35482;-74
2021/12/01 13:06:08;;;;;;;9.82;3.03;;;;;;;9.18;59.20;98808.12;4448423;32;34533;-73
2021/12/01 13:09:14;;;;;;;9.68;3.42;;;;;;;8.98;59.97;98804.87;4447394;32;35588;-72
2021/12/01 13:12:00;;;;;;;9.38;2.92;;;;;;;8.75;61.19;98800.69;4446702;32;33819;-73
2021/12/01 13:14:48;;;;;;;9.40;3.25;;;;;;;8.41;62.14;98807.69;4445713;32;34641;-74
2021/12/01 13:17:35;;;;;;;8.93;3.90;;;;;;;8.49;61.92;98798.72;4446508;32;35521;-74
2021/12/01 13:20:24;;;;;;;8.18;3.80;;;;;;;9.11;61.13;98799.63;4445449;32;34714;-74
2021/12/01 13:23:37;;;;;;;11.32;3.85;;;;;;;9.09;59.73;98799.91;4445577;32;34048;-75
2021/12/01 13:26:30;;;;;;;7.50;3.40;;;;;;;9.45;57.82;98796.84;4435934;32;35483;-75